createdAt,value
2019-04-14T00:00:14.284Z,0.00
2019-04-14T00:01:15.085Z,0.00
2019-04-14T00:02:14.204Z,0.00
2019-04-14T00:03:15.077Z,0.00
2019-04-14T00:04:14.014Z,0.00
2019-04-14T00:05:14.713Z,0.00
2019-04-14T00:06:13.928Z,0.00
2019-04-14T00:07:14.463Z,0.00
2019-04-14T00:08:13.909Z,0.00
2019-04-14T00:09:14.104Z,0.00
2019-04-14T00:10:13.948Z,0.00
2019-04-14T00:11:14.752Z,0.00
2019-04-14T00:12:14.351Z,0.00
2019-04-14T00:13:13.851Z,0.00
2019-04-14T00:14:14.182Z,0.00
2019-04-14T00:15:25.923Z,0.00
2019-04-14T00:16:14.817Z,0.00
2019-04-14T00:17:15.064Z,0.00
2019-04-14T00:18:14.279Z,0.00
2019-04-14T00:19:13.831Z,0.00
2019-04-14T00:20:14.255Z,0.00
2019-04-14T00:21:15.068Z,0.00
2019-04-14T00:22:14.103Z,0.00
2019-04-14T00:23:13.810Z,4.00
2019-04-14T00:24:14.056Z,8.00
2019-04-14T00:25:13.763Z,8.00
2019-04-14T00:26:14.034Z,4.00
2019-04-14T00:27:14.898Z,8.00
2019-04-14T00:28:14.147Z,8.00
2019-04-14T00:29:13.681Z,8.00
2019-04-14T00:30:14.404Z,8.00
2019-04-14T00:31:13.697Z,8.00
2019-04-14T00:32:14.078Z,8.00
2019-04-14T00:33:14.812Z,8.00
2019-04-14T00:34:13.854Z,8.00
2019-04-14T00:35:14.640Z,8.00
2019-04-14T00:36:13.602Z,4.00
2019-04-14T00:37:14.167Z,4.00
2019-04-14T00:38:13.476Z,0.00
2019-04-14T00:39:13.932Z,0.00
2019-04-14T00:40:13.561Z,0.00
2019-04-14T00:41:13.717Z,0.00
2019-04-14T00:42:13.427Z,0.00
2019-04-14T00:43:13.569Z,0.00
2019-04-14T00:44:14.548Z,0.00
2019-04-14T00:45:13.404Z,0.00
2019-04-14T00:46:14.443Z,0.00
2019-04-14T00:47:13.561Z,0.00
2019-04-14T00:48:16.637Z,0.00
2019-04-14T00:49:15.656Z,0.00
2019-04-14T00:50:14.598Z,0.00
2019-04-14T00:51:13.480Z,0.00
2019-04-14T00:52:14.476Z,0.00
2019-04-14T00:53:14.248Z,0.00
2019-04-14T00:54:13.413Z,0.00
2019-04-14T00:55:13.980Z,0.00
2019-04-14T00:56:13.309Z,0.00
2019-04-14T00:57:13.689Z,0.00
2019-04-14T00:58:13.356Z,0.00
2019-04-14T00:59:13.661Z,0.00
2019-04-14T01:00:16.953Z,0.00
2019-04-14T01:01:13.348Z,0.00
2019-04-14T01:02:14.493Z,0.00
2019-04-14T01:03:13.453Z,0.00
2019-04-14T01:04:14.346Z,0.00
2019-04-14T01:05:13.188Z,0.00
2019-04-14T01:06:14.292Z,0.00
2019-04-14T01:07:13.262Z,0.00
2019-04-14T01:08:14.133Z,0.00
2019-04-14T01:09:13.277Z,0.00
2019-04-14T01:10:13.219Z,0.00
2019-04-14T01:11:13.853Z,0.00
2019-04-14T01:12:13.199Z,0.00
2019-04-14T01:13:14.221Z,0.00
2019-04-14T01:14:13.073Z,0.00
2019-04-14T01:15:13.685Z,0.00
2019-04-14T01:16:17.435Z,0.00
2019-04-14T01:17:15.444Z,0.00
2019-04-14T01:18:13.025Z,0.00
2019-04-14T01:19:13.397Z,0.00
2019-04-14T01:20:13.115Z,0.00
2019-04-14T01:21:13.193Z,0.00
2019-04-14T01:22:14.127Z,0.00
2019-04-14T01:23:13.080Z,0.00
2019-04-14T01:24:14.164Z,0.00
2019-04-14T01:25:13.066Z,0.00
2019-04-14T01:26:13.861Z,0.00
2019-04-14T01:27:13.031Z,0.00
2019-04-14T01:28:13.732Z,0.00
2019-04-14T01:29:13.011Z,0.00
2019-04-14T01:30:13.335Z,0.00
2019-04-14T01:31:13.986Z,0.00
2019-04-14T01:32:13.308Z,0.00
2019-04-14T01:33:14.034Z,0.00
2019-04-14T01:34:13.036Z,0.00
2019-04-14T01:35:13.858Z,0.00
2019-04-14T01:36:12.880Z,0.00
2019-04-14T01:37:13.672Z,0.00
2019-04-14T01:38:12.911Z,0.00
2019-04-14T01:39:13.306Z,0.00
2019-04-14T01:40:12.788Z,0.00
2019-04-14T01:41:12.911Z,0.00
2019-04-14T01:42:13.795Z,0.00
2019-04-14T01:43:12.847Z,0.00
2019-04-14T01:44:13.530Z,0.00
2019-04-14T01:45:12.846Z,0.00
2019-04-14T01:46:19.661Z,0.00
2019-04-14T01:47:13.861Z,0.00
2019-04-14T01:48:12.810Z,0.00
2019-04-14T01:49:13.669Z,0.00
2019-04-14T01:50:12.821Z,0.00
2019-04-14T01:51:13.534Z,0.00
2019-04-14T01:52:12.775Z,0.00
2019-04-14T01:53:13.915Z,0.00
2019-04-14T01:54:12.795Z,0.00
2019-04-14T01:55:13.352Z,0.00
2019-04-14T01:56:12.714Z,0.00
2019-04-14T01:57:13.180Z,0.00
2019-04-14T01:58:12.727Z,0.00
2019-04-14T01:59:12.993Z,0.00
2019-04-14T02:00:12.669Z,0.00
2019-04-14T02:01:12.768Z,0.00
2019-04-14T02:02:12.640Z,0.00
2019-04-14T02:03:12.819Z,0.00
2019-04-14T02:04:13.633Z,0.00
2019-04-14T02:05:12.613Z,0.00
2019-04-14T02:06:13.549Z,0.00
2019-04-14T02:07:12.668Z,0.00
2019-04-14T02:08:13.454Z,0.00
2019-04-14T02:09:12.570Z,0.00
2019-04-14T02:10:12.884Z,0.00
2019-04-14T02:11:13.706Z,0.00
2019-04-14T02:12:12.829Z,0.00
2019-04-14T02:13:13.570Z,0.00
2019-04-14T02:14:12.616Z,0.00
2019-04-14T02:15:13.379Z,0.00
2019-04-14T02:16:21.547Z,0.00
2019-04-14T02:17:13.491Z,0.00
2019-04-14T02:18:12.505Z,0.00
2019-04-14T02:19:13.206Z,0.00
2019-04-14T02:20:12.357Z,0.00
2019-04-14T02:21:12.874Z,0.00
2019-04-14T02:22:13.711Z,0.00
2019-04-14T02:23:12.587Z,0.00
2019-04-14T02:24:13.445Z,0.00
2019-04-14T02:25:12.289Z,0.00
2019-04-14T02:26:13.271Z,0.00
2019-04-14T02:27:12.372Z,0.00
2019-04-14T02:28:13.398Z,0.00
2019-04-14T02:29:12.391Z,0.00
2019-04-14T02:30:15.845Z,0.00
2019-04-14T02:31:33.051Z,0.00
2019-04-14T02:32:43.373Z,0.00
2019-04-14T02:33:44.432Z,0.00
2019-04-14T02:34:39.244Z,0.00
2019-04-14T02:36:43.523Z,0.00
2019-04-14T02:37:45.513Z,0.00
2019-04-14T02:39:48.271Z,0.00
2019-04-14T02:40:49.301Z,0.00
2019-04-14T02:41:51.259Z,0.00
2019-04-14T02:42:40.437Z,0.00
2019-04-14T02:43:57.945Z,0.00
2019-04-14T02:44:53.307Z,0.00
2019-04-14T02:45:44.957Z,0.00
2019-04-14T02:46:47.923Z,0.00
2019-04-14T02:47:53.812Z,0.00
2019-04-14T02:48:44.179Z,0.00
2019-04-14T02:50:38.595Z,0.00
2019-04-14T02:52:43.091Z,0.00
2019-04-14T02:53:44.326Z,0.00
2019-04-14T02:54:51.689Z,0.00
2019-04-14T02:55:42.521Z,0.00
2019-04-14T02:56:36.552Z,0.00
2019-04-14T02:57:38.323Z,0.00
2019-04-14T02:59:59.511Z,0.00
2019-04-14T03:00:44.740Z,0.00
2019-04-14T03:01:38.737Z,0.00
2019-04-14T03:02:40.942Z,0.00
2019-04-14T03:03:37.266Z,0.00
2019-04-14T03:04:56.996Z,0.00
2019-04-14T03:05:44.658Z,0.00
2019-04-14T03:06:35.358Z,0.00
2019-04-14T03:07:40.244Z,0.00
2019-04-14T03:08:46.825Z,0.00
2019-04-14T03:11:43.598Z,0.00
2019-04-14T03:12:38.652Z,0.00
2019-04-14T03:13:45.083Z,0.00
2019-04-14T03:14:40.188Z,0.00
2019-04-14T03:15:39.694Z,0.00
2019-04-14T03:16:39.761Z,0.00
2019-04-14T03:17:45.187Z,0.00
2019-04-14T03:18:39.507Z,0.00
2019-04-14T03:19:43.917Z,0.00
2019-04-14T03:20:31.888Z,0.00
2019-04-14T03:23:40.782Z,0.00
2019-04-14T03:24:35.841Z,0.00
2019-04-14T03:25:27.820Z,0.00
2019-04-14T03:26:40.391Z,0.00
2019-04-14T03:28:38.509Z,0.00
2019-04-14T03:29:34.832Z,0.00
2019-04-14T03:31:01.796Z,0.00
2019-04-14T03:34:16.834Z,0.00
2019-04-14T03:34:52.038Z,0.00
2019-04-14T03:37:45.229Z,0.00
2019-04-14T03:38:34.462Z,0.00
2019-04-14T03:39:40.598Z,0.00
2019-04-14T03:41:37.277Z,0.00
2019-04-14T03:42:45.962Z,0.00
2019-04-14T03:44:46.786Z,0.00
2019-04-14T03:45:43.281Z,0.00
2019-04-14T03:46:43.332Z,0.00
2019-04-14T03:47:34.388Z,0.00
2019-04-14T03:48:54.031Z,0.00
2019-04-14T03:49:42.892Z,0.00
2019-04-14T03:50:40.346Z,0.00
2019-04-14T03:51:45.304Z,0.00
2019-04-14T03:53:38.508Z,0.00
2019-04-14T03:54:33.159Z,0.00
2019-04-14T03:55:25.475Z,0.00
2019-04-14T03:56:14.937Z,0.00
2019-04-14T03:57:12.525Z,0.00
2019-04-14T03:58:13.053Z,0.00
2019-04-14T03:59:12.720Z,0.00
2019-04-14T04:00:11.717Z,0.00
2019-04-14T04:01:12.607Z,0.00
2019-04-14T04:02:11.802Z,0.00
2019-04-14T04:03:11.310Z,0.00
2019-04-14T04:04:11.880Z,0.00
2019-04-14T04:05:11.339Z,0.00
2019-04-14T04:06:11.818Z,0.00
2019-04-14T04:07:12.380Z,0.00
2019-04-14T04:08:11.526Z,0.00
2019-04-14T04:09:12.479Z,0.00
2019-04-14T04:10:11.481Z,0.00
2019-04-14T04:11:11.235Z,0.00
2019-04-14T04:12:11.778Z,0.00
2019-04-14T04:13:11.181Z,0.00
2019-04-14T04:14:11.772Z,0.00
2019-04-14T04:15:11.149Z,0.00
2019-04-14T04:16:11.507Z,0.00
2019-04-14T04:17:12.158Z,0.00
2019-04-14T04:18:11.354Z,0.00
2019-04-14T04:19:13.950Z,4.00
2019-04-14T04:20:11.108Z,4.00
2019-04-14T04:21:11.644Z,4.00
2019-04-14T04:22:11.133Z,4.00
2019-04-14T04:23:11.749Z,4.00
2019-04-14T04:24:10.966Z,4.00
2019-04-14T04:25:11.597Z,0.00
2019-04-14T04:26:10.978Z,0.00
2019-04-14T04:27:11.140Z,4.00
2019-04-14T04:28:10.979Z,4.00
2019-04-14T04:29:11.234Z,4.00
2019-04-14T04:30:12.263Z,4.00
2019-04-14T04:31:11.042Z,8.00
2019-04-14T04:32:12.121Z,4.00
2019-04-14T04:33:11.009Z,4.00
2019-04-14T04:34:11.931Z,8.00
2019-04-14T04:35:10.943Z,8.00
2019-04-14T04:36:11.740Z,4.00
2019-04-14T04:37:10.930Z,8.00
2019-04-14T04:38:11.759Z,8.00
2019-04-14T04:39:10.863Z,8.00
2019-04-14T04:40:11.488Z,8.00
2019-04-14T04:41:10.885Z,8.00
2019-04-14T04:42:11.290Z,12.00
2019-04-14T04:43:10.868Z,8.00
2019-04-14T04:44:11.578Z,12.00
2019-04-14T04:45:10.901Z,12.00
2019-04-14T04:46:11.332Z,12.00
2019-04-14T04:47:10.811Z,12.00
2019-04-14T04:48:10.948Z,12.00
2019-04-14T04:49:16.509Z,16.00
2019-04-14T04:50:12.906Z,12.00
2019-04-14T04:51:11.677Z,12.00
2019-04-14T04:52:12.662Z,16.00
2019-04-14T04:53:11.510Z,16.00
2019-04-14T04:54:10.654Z,12.00
2019-04-14T04:55:11.215Z,16.00
2019-04-14T04:56:10.736Z,16.00
2019-04-14T04:57:11.286Z,16.00
2019-04-14T04:58:12.016Z,16.00
2019-04-14T04:59:10.701Z,16.00
2019-04-14T05:00:11.404Z,16.00
2019-04-14T05:01:10.675Z,20.00
2019-04-14T05:02:11.244Z,20.00
2019-04-14T05:03:10.632Z,20.00
2019-04-14T05:04:11.108Z,16.00
2019-04-14T05:05:10.625Z,16.00
2019-04-14T05:06:11.264Z,16.00
2019-04-14T05:07:10.588Z,16.00
2019-04-14T05:08:10.885Z,16.00
2019-04-14T05:09:10.596Z,16.00
2019-04-14T05:10:11.011Z,16.00
2019-04-14T05:11:10.553Z,20.00
2019-04-14T05:12:11.036Z,20.00
2019-04-14T05:13:11.778Z,20.00
2019-04-14T05:14:10.892Z,20.00
2019-04-14T05:15:10.500Z,20.00
2019-04-14T05:16:10.718Z,20.00
2019-04-14T05:17:10.497Z,24.00
2019-04-14T05:18:11.236Z,20.00
2019-04-14T05:19:17.248Z,24.00
2019-04-14T05:20:11.674Z,24.00
2019-04-14T05:21:10.497Z,24.00
2019-04-14T05:22:11.306Z,24.00
2019-04-14T05:23:10.411Z,24.00
2019-04-14T05:24:11.431Z,24.00
2019-04-14T05:25:10.395Z,24.00
2019-04-14T05:26:11.266Z,28.00
2019-04-14T05:27:10.363Z,28.00
2019-04-14T05:28:11.294Z,32.00
2019-04-14T05:29:10.346Z,28.00
2019-04-14T05:30:11.157Z,32.00
2019-04-14T05:31:10.368Z,32.00
2019-04-14T05:32:10.868Z,32.00
2019-04-14T05:33:10.301Z,36.00
2019-04-14T05:34:10.768Z,32.00
2019-04-14T05:35:10.310Z,36.00
2019-04-14T05:36:10.690Z,32.00
2019-04-14T05:37:11.683Z,36.00
2019-04-14T05:38:10.558Z,36.00
2019-04-14T05:39:11.307Z,36.00
2019-04-14T05:40:10.360Z,36.00
2019-04-14T05:41:11.418Z,36.00
2019-04-14T05:42:17.177Z,40.00
2019-04-14T05:43:11.425Z,40.00
2019-04-14T05:44:10.111Z,40.00
2019-04-14T05:45:11.186Z,40.00
2019-04-14T05:46:10.157Z,40.00
2019-04-14T05:47:11.094Z,40.00
2019-04-14T05:48:10.181Z,40.00
2019-04-14T05:49:10.946Z,40.00
2019-04-14T05:50:11.657Z,40.00
2019-04-14T05:51:11.022Z,36.00
2019-04-14T05:52:10.087Z,36.00
2019-04-14T05:53:11.034Z,36.00
2019-04-14T05:54:10.070Z,40.00
2019-04-14T05:55:11.142Z,40.00
2019-04-14T05:56:10.097Z,40.00
2019-04-14T05:57:11.130Z,40.00
2019-04-14T05:58:10.058Z,44.00
2019-04-14T05:59:11.268Z,44.00
2019-04-14T06:00:10.330Z,48.00
2019-04-14T06:01:11.223Z,48.00
2019-04-14T06:02:10.013Z,52.00
2019-04-14T06:03:10.329Z,52.00
2019-04-14T06:04:10.016Z,52.00
2019-04-14T06:05:11.341Z,56.00
2019-04-14T06:06:09.975Z,56.00
2019-04-14T06:07:09.941Z,52.00
2019-04-14T06:08:09.921Z,56.00
2019-04-14T06:09:09.908Z,56.00
2019-04-14T06:10:09.922Z,56.00
2019-04-14T06:11:09.905Z,60.00
2019-04-14T06:12:09.871Z,64.00
2019-04-14T06:13:11.793Z,64.00
2019-04-14T06:14:09.893Z,68.00
2019-04-14T06:15:09.845Z,68.00
2019-04-14T06:16:09.829Z,76.00
2019-04-14T06:17:09.815Z,76.00
2019-04-14T06:18:09.815Z,80.00
2019-04-14T06:19:09.749Z,80.00
2019-04-14T06:20:09.703Z,84.00
2019-04-14T06:21:09.690Z,84.00
2019-04-14T06:22:09.777Z,88.00
2019-04-14T06:23:09.662Z,92.00
2019-04-14T06:24:09.667Z,92.00
2019-04-14T06:25:09.731Z,100.00
2019-04-14T06:26:09.639Z,100.00
2019-04-14T06:27:09.614Z,104.00
2019-04-14T06:28:09.614Z,104.00
2019-04-14T06:29:09.707Z,108.00
2019-04-14T06:30:09.584Z,112.00
2019-04-14T06:31:09.625Z,116.00
2019-04-14T06:32:09.563Z,116.00
2019-04-14T06:33:09.653Z,124.00
2019-04-14T06:34:09.649Z,120.00
2019-04-14T06:35:09.543Z,124.00
2019-04-14T06:36:09.531Z,128.00
2019-04-14T06:37:09.657Z,132.00
2019-04-14T06:38:09.499Z,132.00
2019-04-14T06:39:09.499Z,136.00
2019-04-14T06:40:09.465Z,136.00
2019-04-14T06:41:09.566Z,136.00
2019-04-14T06:42:09.475Z,140.00
2019-04-14T06:43:11.617Z,140.00
2019-04-14T06:44:09.441Z,136.00
2019-04-14T06:45:09.532Z,144.00
2019-04-14T06:46:09.418Z,144.00
2019-04-14T06:47:09.430Z,148.00
2019-04-14T06:48:09.506Z,152.00
2019-04-14T06:49:09.506Z,152.00
2019-04-14T06:50:09.451Z,152.00
2019-04-14T06:51:09.359Z,152.00
2019-04-14T06:52:09.343Z,156.00
2019-04-14T06:53:09.344Z,156.00
2019-04-14T06:54:09.439Z,156.00
2019-04-14T06:55:09.398Z,156.00
2019-04-14T06:56:09.297Z,160.00
2019-04-14T06:57:09.300Z,160.00
2019-04-14T06:58:09.277Z,160.00
2019-04-14T06:59:09.252Z,160.00
2019-04-14T07:00:09.301Z,160.00
2019-04-14T07:01:09.253Z,160.00
2019-04-14T07:02:09.236Z,160.00
2019-04-14T07:03:09.238Z,160.00
2019-04-14T07:04:09.299Z,156.00
2019-04-14T07:05:09.218Z,160.00
2019-04-14T07:06:09.342Z,164.00
2019-04-14T07:07:09.188Z,164.00
2019-04-14T07:08:09.282Z,164.00
2019-04-14T07:09:09.231Z,168.00
2019-04-14T07:10:09.159Z,172.00
2019-04-14T07:11:09.124Z,176.00
2019-04-14T07:12:09.255Z,180.00
2019-04-14T07:13:13.745Z,180.00
2019-04-14T07:14:09.126Z,184.00
2019-04-14T07:15:09.209Z,184.00
2019-04-14T07:16:09.088Z,184.00
2019-04-14T07:17:09.103Z,184.00
2019-04-14T07:18:11.872Z,184.00
2019-04-14T07:19:09.077Z,184.00
2019-04-14T07:20:09.069Z,188.00
2019-04-14T07:21:09.132Z,188.00
2019-04-14T07:22:09.060Z,188.00
2019-04-14T07:23:08.998Z,188.00
2019-04-14T07:24:09.109Z,192.00
2019-04-14T07:25:09.025Z,192.00
2019-04-14T07:26:08.961Z,192.00
2019-04-14T07:27:08.997Z,196.00
2019-04-14T07:28:08.992Z,196.00
2019-04-14T07:29:08.953Z,196.00
2019-04-14T07:30:08.935Z,204.00
2019-04-14T07:31:08.918Z,204.00
2019-04-14T07:32:08.992Z,208.00
2019-04-14T07:33:08.925Z,208.00
2019-04-14T07:34:08.980Z,212.00
2019-04-14T07:35:08.969Z,220.00
2019-04-14T07:36:08.856Z,224.00
2019-04-14T07:37:08.862Z,232.00
2019-04-14T07:38:08.957Z,240.00
2019-04-14T07:39:08.964Z,248.00
2019-04-14T07:40:08.840Z,256.00
2019-04-14T07:41:09.649Z,268.00
2019-04-14T07:42:08.880Z,280.00
2019-04-14T07:43:08.894Z,288.00
2019-04-14T07:44:08.826Z,300.00
2019-04-14T07:45:08.807Z,296.00
2019-04-14T07:46:08.753Z,300.00
2019-04-14T07:47:08.736Z,304.00
2019-04-14T07:48:08.844Z,304.00
2019-04-14T07:49:08.723Z,300.00
2019-04-14T07:50:14.554Z,300.00
2019-04-14T07:51:09.804Z,304.00
2019-04-14T07:52:08.774Z,308.00
2019-04-14T07:53:08.685Z,312.00
2019-04-14T07:54:08.670Z,344.00
2019-04-14T07:55:08.713Z,324.00
2019-04-14T07:56:08.761Z,320.00
2019-04-14T07:57:08.743Z,304.00
2019-04-14T07:58:08.724Z,304.00
2019-04-14T07:59:08.612Z,296.00
2019-04-14T08:00:08.591Z,296.00
2019-04-14T08:01:08.623Z,300.00
2019-04-14T08:02:08.578Z,296.00
2019-04-14T08:03:08.562Z,300.00
2019-04-14T08:04:08.639Z,304.00
2019-04-14T08:05:08.542Z,316.00
2019-04-14T08:06:08.524Z,336.00
2019-04-14T08:07:08.556Z,328.00
2019-04-14T08:08:08.502Z,328.00
2019-04-14T08:09:08.629Z,336.00
2019-04-14T08:10:08.506Z,324.00
2019-04-14T08:11:08.562Z,320.00
2019-04-14T08:12:08.588Z,320.00
2019-04-14T08:13:08.557Z,324.00
2019-04-14T08:14:08.463Z,320.00
2019-04-14T08:15:08.429Z,324.00
2019-04-14T08:16:08.430Z,320.00
2019-04-14T08:17:08.503Z,312.00
2019-04-14T08:18:08.724Z,312.00
2019-04-14T08:19:08.469Z,312.00
2019-04-14T08:20:08.461Z,316.00
2019-04-14T08:21:08.490Z,324.00
2019-04-14T08:22:08.355Z,332.00
2019-04-14T08:23:08.464Z,328.00
2019-04-14T08:24:08.431Z,348.00
2019-04-14T08:25:08.489Z,392.00
2019-04-14T08:26:08.407Z,448.00
2019-04-14T08:27:08.301Z,464.00
2019-04-14T08:28:08.375Z,452.00
2019-04-14T08:29:08.278Z,444.00
2019-04-14T08:30:08.396Z,448.00
2019-04-14T08:31:08.379Z,432.00
2019-04-14T08:32:08.245Z,408.00
2019-04-14T08:33:08.221Z,396.00
2019-04-14T08:34:08.229Z,400.00
2019-04-14T08:35:08.215Z,392.00
2019-04-14T08:36:08.259Z,384.00
2019-04-14T08:37:08.189Z,388.00
2019-04-14T08:38:08.293Z,372.00
2019-04-14T08:39:08.260Z,392.00
2019-04-14T08:40:08.157Z,396.00
2019-04-14T08:41:08.145Z,408.00
2019-04-14T08:42:09.134Z,424.00
2019-04-14T08:43:08.123Z,432.00
2019-04-14T08:44:08.107Z,436.00
2019-04-14T08:45:08.101Z,440.00
2019-04-14T08:46:08.179Z,460.00
2019-04-14T08:47:08.102Z,456.00
2019-04-14T08:48:08.083Z,472.00
2019-04-14T08:49:08.055Z,472.00
2019-04-14T08:50:08.057Z,484.00
2019-04-14T08:51:08.142Z,472.00
2019-04-14T08:52:08.208Z,484.00
2019-04-14T08:53:08.116Z,480.00
2019-04-14T08:54:08.009Z,484.00
2019-04-14T08:55:08.017Z,480.00
2019-04-14T08:56:07.977Z,484.00
2019-04-14T08:57:08.088Z,480.00
2019-04-14T08:58:07.966Z,480.00
2019-04-14T08:59:08.042Z,476.00
2019-04-14T09:00:07.967Z,468.00
2019-04-14T09:01:07.936Z,460.00
2019-04-14T09:02:08.671Z,456.00
2019-04-14T09:03:07.910Z,456.00
2019-04-14T09:04:07.913Z,464.00
2019-04-14T09:05:07.927Z,468.00
2019-04-14T09:06:07.881Z,464.00
2019-04-14T09:07:07.865Z,452.00
2019-04-14T09:08:07.857Z,464.00
2019-04-14T09:09:07.840Z,452.00
2019-04-14T09:10:07.919Z,456.00
2019-04-14T09:11:07.857Z,440.00
2019-04-14T09:12:15.300Z,436.00
2019-04-14T09:13:08.783Z,436.00
2019-04-14T09:14:07.769Z,448.00
2019-04-14T09:15:07.888Z,452.00
2019-04-14T09:16:07.774Z,448.00
2019-04-14T09:17:07.791Z,456.00
2019-04-14T09:18:07.763Z,452.00
2019-04-14T09:19:08.187Z,464.00
2019-04-14T09:20:07.834Z,480.00
2019-04-14T09:21:07.708Z,500.00
2019-04-14T09:22:07.711Z,520.00
2019-04-14T09:23:07.801Z,516.00
2019-04-14T09:24:07.679Z,524.00
2019-04-14T09:25:07.686Z,528.00
2019-04-14T09:26:07.647Z,528.00
2019-04-14T09:27:07.636Z,536.00
2019-04-14T09:28:07.732Z,540.00
2019-04-14T09:29:07.672Z,532.00
2019-04-14T09:30:07.618Z,496.00
2019-04-14T09:31:07.596Z,488.00
2019-04-14T09:32:07.590Z,492.00
2019-04-14T09:33:07.617Z,500.00
2019-04-14T09:34:07.558Z,504.00
2019-04-14T09:35:07.593Z,508.00
2019-04-14T09:36:07.584Z,476.00
2019-04-14T09:37:07.636Z,472.00
2019-04-14T09:38:07.514Z,468.00
2019-04-14T09:39:07.601Z,472.00
2019-04-14T09:40:07.582Z,528.00
2019-04-14T09:41:07.480Z,580.00
2019-04-14T09:42:07.494Z,472.00
2019-04-14T09:43:07.504Z,452.00
2019-04-14T09:44:07.575Z,476.00
2019-04-14T09:45:07.436Z,560.00
2019-04-14T09:46:07.473Z,556.00
2019-04-14T09:47:07.417Z,556.00
2019-04-14T09:48:07.413Z,596.00
2019-04-14T09:49:07.544Z,568.00
2019-04-14T09:50:07.382Z,556.00
2019-04-14T09:51:07.385Z,552.00
2019-04-14T09:52:07.463Z,500.00
2019-04-14T09:53:07.392Z,516.00
2019-04-14T09:54:07.342Z,508.00
2019-04-14T09:55:07.370Z,520.00
2019-04-14T09:56:07.331Z,536.00
2019-04-14T09:57:07.347Z,448.00
2019-04-14T09:58:07.291Z,464.00
2019-04-14T09:59:07.294Z,520.00
2019-04-14T10:00:07.269Z,532.00
2019-04-14T10:01:09.089Z,520.00
2019-04-14T10:02:07.373Z,504.00
2019-04-14T10:03:07.264Z,524.00
2019-04-14T10:04:07.329Z,520.00
2019-04-14T10:05:07.234Z,560.00
2019-04-14T10:06:07.207Z,556.00
2019-04-14T10:07:07.242Z,528.00
2019-04-14T10:08:07.239Z,452.00
2019-04-14T10:09:07.290Z,404.00
2019-04-14T10:10:07.256Z,372.00
2019-04-14T10:11:07.146Z,352.00
2019-04-14T10:12:07.305Z,344.00
2019-04-14T10:13:07.148Z,336.00
2019-04-14T10:14:07.138Z,336.00
2019-04-14T10:15:07.156Z,312.00
2019-04-14T10:16:07.143Z,300.00
2019-04-14T10:17:07.067Z,292.00
2019-04-14T10:18:07.060Z,280.00
2019-04-14T10:19:07.069Z,280.00
2019-04-14T10:20:07.062Z,272.00
2019-04-14T10:21:16.841Z,280.00
2019-04-14T10:22:08.026Z,284.00
2019-04-14T10:23:07.021Z,288.00
2019-04-14T10:24:06.998Z,284.00
2019-04-14T10:25:07.004Z,288.00
2019-04-14T10:26:07.007Z,292.00
2019-04-14T10:27:07.003Z,296.00
2019-04-14T10:28:06.965Z,292.00
2019-04-14T10:29:06.980Z,292.00
2019-04-14T10:30:06.925Z,292.00
2019-04-14T10:31:06.945Z,292.00
2019-04-14T10:32:06.927Z,296.00
2019-04-14T10:33:07.034Z,296.00
2019-04-14T10:34:09.753Z,300.00
2019-04-14T10:35:06.982Z,304.00
2019-04-14T10:36:06.961Z,300.00
2019-04-14T10:37:06.873Z,300.00
2019-04-14T10:38:06.861Z,292.00
2019-04-14T10:39:06.893Z,300.00
2019-04-14T10:40:06.846Z,304.00
2019-04-14T10:41:06.832Z,308.00
2019-04-14T10:42:06.812Z,316.00
2019-04-14T10:43:06.787Z,312.00
2019-04-14T10:44:06.786Z,320.00
2019-04-14T10:45:06.801Z,324.00
2019-04-14T10:46:06.767Z,324.00
2019-04-14T10:47:06.745Z,324.00
2019-04-14T10:48:06.740Z,332.00
2019-04-14T10:49:06.724Z,344.00
2019-04-14T10:50:06.753Z,348.00
2019-04-14T10:51:06.709Z,348.00
2019-04-14T10:52:06.685Z,344.00
2019-04-14T10:53:06.681Z,336.00
2019-04-14T10:54:06.678Z,332.00
2019-04-14T10:55:06.660Z,328.00
2019-04-14T10:56:06.702Z,320.00
2019-04-14T10:57:06.650Z,312.00
2019-04-14T10:58:06.831Z,308.00
2019-04-14T10:59:06.615Z,300.00
2019-04-14T11:00:06.604Z,292.00
2019-04-14T11:01:06.601Z,284.00
2019-04-14T11:02:06.619Z,280.00
2019-04-14T11:03:06.564Z,276.00
2019-04-14T11:04:08.037Z,276.00
2019-04-14T11:05:06.547Z,276.00
2019-04-14T11:06:06.541Z,276.00
2019-04-14T11:07:06.571Z,268.00
2019-04-14T11:08:06.524Z,264.00
2019-04-14T11:09:06.614Z,260.00
2019-04-14T11:10:06.512Z,252.00
2019-04-14T11:11:06.466Z,248.00
2019-04-14T11:12:06.483Z,244.00
2019-04-14T11:13:06.603Z,232.00
2019-04-14T11:14:06.453Z,232.00
2019-04-14T11:15:06.432Z,236.00
2019-04-14T11:16:06.533Z,240.00
2019-04-14T11:17:06.407Z,248.00
2019-04-14T11:18:06.415Z,248.00
2019-04-14T11:19:06.420Z,248.00
2019-04-14T11:20:06.486Z,248.00
2019-04-14T11:21:06.355Z,252.00
2019-04-14T11:22:06.376Z,256.00
2019-04-14T11:23:06.365Z,252.00
2019-04-14T11:24:06.379Z,248.00
2019-04-14T11:25:06.333Z,244.00
2019-04-14T11:26:06.313Z,240.00
2019-04-14T11:27:06.311Z,228.00
2019-04-14T11:28:06.293Z,216.00
2019-04-14T11:29:06.307Z,216.00
2019-04-14T11:30:06.404Z,204.00
2019-04-14T11:31:06.339Z,204.00
2019-04-14T11:32:06.271Z,200.00
2019-04-14T11:33:06.232Z,196.00
2019-04-14T11:34:06.333Z,196.00
2019-04-14T11:35:06.324Z,196.00
2019-04-14T11:36:06.360Z,192.00
2019-04-14T11:37:06.282Z,192.00
2019-04-14T11:38:06.202Z,192.00
2019-04-14T11:39:06.176Z,192.00
2019-04-14T11:40:06.163Z,192.00
2019-04-14T11:41:06.144Z,192.00
2019-04-14T11:42:06.181Z,192.00
2019-04-14T11:43:06.123Z,192.00
2019-04-14T11:44:06.113Z,196.00
2019-04-14T11:45:06.196Z,200.00
2019-04-14T11:46:06.095Z,204.00
2019-04-14T11:47:06.119Z,208.00
2019-04-14T11:48:06.102Z,212.00
2019-04-14T11:49:06.052Z,216.00
2019-04-14T11:50:06.042Z,220.00
2019-04-14T11:51:06.119Z,224.00
2019-04-14T11:52:06.034Z,228.00
2019-04-14T11:53:06.063Z,228.00
2019-04-14T11:54:06.018Z,232.00
2019-04-14T11:55:06.006Z,232.00
2019-04-14T11:56:05.981Z,244.00
2019-04-14T11:57:05.973Z,248.00
2019-04-14T11:58:05.958Z,256.00
2019-04-14T11:59:05.974Z,260.00
2019-04-14T12:00:05.982Z,264.00
2019-04-14T12:01:05.922Z,264.00
2019-04-14T12:02:05.929Z,272.00
2019-04-14T12:03:05.918Z,276.00
2019-04-14T12:04:05.905Z,284.00
2019-04-14T12:05:05.889Z,292.00
2019-04-14T12:06:05.914Z,300.00
2019-04-14T12:07:05.856Z,304.00
2019-04-14T12:08:05.857Z,304.00
2019-04-14T12:09:05.839Z,312.00
2019-04-14T12:10:05.913Z,312.00
2019-04-14T12:11:05.900Z,308.00
2019-04-14T12:12:05.896Z,312.00
2019-04-14T12:13:05.801Z,312.00
2019-04-14T12:14:05.792Z,296.00
2019-04-14T12:15:07.625Z,288.00
2019-04-14T12:16:05.751Z,280.00
2019-04-14T12:17:05.755Z,276.00
2019-04-14T12:18:05.781Z,276.00
2019-04-14T12:19:05.838Z,272.00
2019-04-14T12:20:05.852Z,268.00
2019-04-14T12:21:05.708Z,264.00
2019-04-14T12:22:08.425Z,264.00
2019-04-14T12:23:05.693Z,260.00
2019-04-14T12:24:05.720Z,260.00
2019-04-14T12:25:05.673Z,256.00
2019-04-14T12:26:06.124Z,252.00
2019-04-14T12:27:05.648Z,252.00
2019-04-14T12:28:06.890Z,252.00
2019-04-14T12:29:06.423Z,256.00
2019-04-14T12:30:06.473Z,256.00
2019-04-14T12:31:06.523Z,264.00
2019-04-14T12:32:06.390Z,268.00
2019-04-14T12:33:05.665Z,276.00
2019-04-14T12:34:05.665Z,284.00
2019-04-14T12:35:05.669Z,292.00
2019-04-14T12:36:05.678Z,304.00
2019-04-14T12:37:05.639Z,312.00
2019-04-14T12:38:05.619Z,316.00
2019-04-14T12:39:05.623Z,316.00
2019-04-14T12:40:05.484Z,324.00
2019-04-14T12:41:06.117Z,324.00
2019-04-14T12:42:05.539Z,324.00
2019-04-14T12:43:05.472Z,320.00
2019-04-14T12:44:05.482Z,316.00
2019-04-14T12:45:05.460Z,316.00
2019-04-14T12:46:06.272Z,312.00
2019-04-14T12:47:05.437Z,300.00
2019-04-14T12:48:05.445Z,300.00
2019-04-14T12:49:05.380Z,300.00
2019-04-14T12:50:05.376Z,304.00
2019-04-14T12:51:05.380Z,304.00
2019-04-14T12:52:05.359Z,296.00
2019-04-14T12:53:05.470Z,296.00
2019-04-14T12:54:05.388Z,292.00
2019-04-14T12:55:05.343Z,292.00
2019-04-14T12:56:05.306Z,292.00
2019-04-14T12:57:05.335Z,292.00
2019-04-14T12:58:05.287Z,288.00
2019-04-14T12:59:05.282Z,296.00
2019-04-14T13:00:05.312Z,312.00
2019-04-14T13:01:05.274Z,300.00
2019-04-14T13:02:05.269Z,304.00
2019-04-14T13:03:05.244Z,328.00
2019-04-14T13:04:05.233Z,316.00
2019-04-14T13:05:05.240Z,284.00